sensor_id;sensor_type;location;lat;lon;timestamp;P1;durP1;ratioP1;P2;durP2;ratioP2
691;SDS011;328;50.086;8.576;2022-09-17T00:00:10;3.93;;;1.17;;
691;SDS011;328;50.086;8.576;2022-09-17T00:02:38;3.10;;;0.73;;
691;SDS011;328;50.086;8.576;2022-09-17T00:05:08;1.80;;;0.70;;
691;SDS011;328;50.086;8.576;2022-09-17T00:07:38;2.80;;;0.80;;
691;SDS011;328;50.086;8.576;2022-09-17T00:10:05;1.83;;;0.80;;
691;SDS011;328;50.086;8.576;2022-09-17T00:12:33;4.93;;;0.70;;
691;SDS011;328;50.086;8.576;2022-09-17T00:15:01;3.60;;;1.10;;
691;SDS011;328;50.086;8.576;2022-09-17T00:17:28;2.70;;;0.90;;
691;SDS011;328;50.086;8.576;2022-09-17T00:19:56;1.27;;;0.70;;
691;SDS011;328;50.086;8.576;2022-09-17T00:22:24;1.23;;;0.67;;
691;SDS011;328;50.086;8.576;2022-09-17T00:24:52;1.40;;;0.90;;
691;SDS011;328;50.086;8.576;2022-09-17T00:27:20;1.10;;;0.70;;
691;SDS011;328;50.086;8.576;2022-09-17T00:29:48;3.50;;;0.80;;
691;SDS011;328;50.086;8.576;2022-09-17T00:32:15;4.43;;;0.80;;
691;SDS011;328;50.086;8.576;2022-09-17T00:34:43;1.87;;;0.60;;
691;SDS011;328;50.086;8.576;2022-09-17T00:37:11;1.57;;;0.70;;
691;SDS011;328;50.086;8.576;2022-09-17T00:39:39;2.90;;;0.97;;
691;SDS011;328;50.086;8.576;2022-09-17T00:42:09;1.40;;;0.83;;
691;SDS011;328;50.086;8.576;2022-09-17T00:44:43;8.60;;;0.93;;
691;SDS011;328;50.086;8.576;2022-09-17T00:47:15;3.40;;;1.00;;
691;SDS011;328;50.086;8.576;2022-09-17T00:49:46;2.70;;;0.90;;
691;SDS011;328;50.086;8.576;2022-09-17T00:52:14;2.03;;;0.90;;
691;SDS011;328;50.086;8.576;2022-09-17T00:54:45;4.63;;;1.10;;
691;SDS011;328;50.086;8.576;2022-09-17T00:57:19;3.07;;;0.80;;
691;SDS011;328;50.086;8.576;2022-09-17T00:59:47;2.63;;;1.10;;
691;SDS011;328;50.086;8.576;2022-09-17T01:02:14;3.53;;;0.97;;
691;SDS011;328;50.086;8.576;2022-09-17T01:04:43;1.47;;;0.80;;
691;SDS011;328;50.086;8.576;2022-09-17T01:07:11;1.10;;;0.70;;
691;SDS011;328;50.086;8.576;2022-09-17T01:09:53;2.33;;;0.73;;
691;SDS011;328;50.086;8.576;2022-09-17T01:12:28;3.00;;;0.83;;
691;SDS011;328;50.086;8.576;2022-09-17T01:15:09;1.87;;;0.90;;
691;SDS011;328;50.086;8.576;2022-09-17T01:17:42;8.10;;;1.10;;
691;SDS011;328;50.086;8.576;2022-09-17T01:20:25;2.60;;;0.90;;
691;SDS011;328;50.086;8.576;2022-09-17T01:23:20;1.43;;;0.60;;
691;SDS011;328;50.086;8.576;2022-09-17T01:26:02;2.50;;;0.83;;
691;SDS011;328;50.086;8.576;2022-09-17T01:28:43;4.27;;;1.17;;
691;SDS011;328;50.086;8.576;2022-09-17T01:31:22;1.73;;;0.70;;
691;SDS011;328;50.086;8.576;2022-09-17T01:33:57;2.97;;;1.00;;
691;SDS011;328;50.086;8.576;2022-09-17T01:39:18;7.10;;;1.00;;
691;SDS011;328;50.086;8.576;2022-09-17T01:41:53;4.33;;;1.10;;
691;SDS011;328;50.086;8.576;2022-09-17T01:44:27;1.37;;;0.80;;
691;SDS011;328;50.086;8.576;2022-09-17T01:47:00;3.00;;;1.00;;
691;SDS011;328;50.086;8.576;2022-09-17T01:49:32;1.93;;;0.80;;
691;SDS011;328;50.086;8.576;2022-09-17T01:52:02;3.27;;;0.70;;
691;SDS011;328;50.086;8.576;2022-09-17T01:54:31;2.60;;;0.70;;
691;SDS011;328;50.086;8.576;2022-09-17T01:57:07;7.53;;;1.20;;
691;SDS011;328;50.086;8.576;2022-09-17T01:59:39;4.43;;;0.93;;
691;SDS011;328;50.086;8.576;2022-09-17T02:02:11;2.27;;;0.87;;
691;SDS011;328;50.086;8.576;2022-09-17T02:04:42;2.20;;;0.67;;
691;SDS011;328;50.086;8.576;2022-09-17T02:07:13;1.53;;;0.70;;
691;SDS011;328;50.086;8.576;2022-09-17T02:09:49;1.20;;;0.70;;
691;SDS011;328;50.086;8.576;2022-09-17T02:12:20;7.87;;;0.87;;
691;SDS011;328;50.086;8.576;2022-09-17T02:14:51;2.00;;;1.27;;
691;SDS011;328;50.086;8.576;2022-09-17T02:17:23;2.20;;;0.83;;
691;SDS011;328;50.086;8.576;2022-09-17T02:19:53;1.67;;;0.90;;
691;SDS011;328;50.086;8.576;2022-09-17T02:22:22;5.03;;;1.10;;
691;SDS011;328;50.086;8.576;2022-09-17T02:24:55;8.37;;;1.30;;
691;SDS011;328;50.086;8.576;2022-09-17T02:27:29;1.40;;;0.93;;
691;SDS011;328;50.086;8.576;2022-09-17T02:30:03;3.40;;;1.90;;
691;SDS011;328;50.086;8.576;2022-09-17T02:32:33;5.03;;;1.27;;
691;SDS011;328;50.086;8.576;2022-09-17T02:35:01;1.43;;;0.83;;
691;SDS011;328;50.086;8.576;2022-09-17T02:37:28;3.03;;;0.93;;
691;SDS011;328;50.086;8.576;2022-09-17T02:39:56;2.83;;;1.37;;
691;SDS011;328;50.086;8.576;2022-09-17T02:42:27;2.37;;;0.90;;
691;SDS011;328;50.086;8.576;2022-09-17T02:44:59;5.90;;;2.03;;
691;SDS011;328;50.086;8.576;2022-09-17T02:47:35;4.60;;;1.13;;
691;SDS011;328;50.086;8.576;2022-09-17T02:53:13;3.33;;;1.40;;
691;SDS011;328;50.086;8.576;2022-09-17T02:55:51;3.33;;;1.43;;
691;SDS011;328;50.086;8.576;2022-09-17T02:58:27;4.83;;;1.77;;
691;SDS011;328;50.086;8.576;2022-09-17T03:01:00;1.50;;;1.03;;
691;SDS011;328;50.086;8.576;2022-09-17T03:03:33;6.10;;;1.63;;
691;SDS011;328;50.086;8.576;2022-09-17T03:06:02;3.03;;;1.20;;
691;SDS011;328;50.086;8.576;2022-09-17T03:08:31;3.57;;;1.70;;
691;SDS011;328;50.086;8.576;2022-09-17T03:11:01;4.63;;;1.43;;
691;SDS011;328;50.086;8.576;2022-09-17T03:13:29;3.03;;;1.37;;
691;SDS011;328;50.086;8.576;2022-09-17T03:15:57;1.83;;;1.20;;
691;SDS011;328;50.086;8.576;2022-09-17T03:18:25;2.00;;;0.90;;
691;SDS011;328;50.086;8.576;2022-09-17T03:20:54;3.07;;;1.50;;
691;SDS011;328;50.086;8.576;2022-09-17T03:23:21;3.03;;;1.30;;
691;SDS011;328;50.086;8.576;2022-09-17T03:25:48;4.37;;;1.40;;
691;SDS011;328;50.086;8.576;2022-09-17T03:28:16;5.23;;;1.60;;
691;SDS011;328;50.086;8.576;2022-09-17T03:30:43;1.90;;;1.20;;
691;SDS011;328;50.086;8.576;2022-09-17T03:33:11;1.83;;;0.93;;
691;SDS011;328;50.086;8.576;2022-09-17T03:35:41;5.30;;;1.70;;
691;SDS011;328;50.086;8.576;2022-09-17T03:38:10;2.10;;;1.30;;
691;SDS011;328;50.086;8.576;2022-09-17T03:40:38;1.90;;;1.13;;
691;SDS011;328;50.086;8.576;2022-09-17T03:43:06;4.10;;;1.83;;
691;SDS011;328;50.086;8.576;2022-09-17T03:45:34;5.63;;;1.60;;
691;SDS011;328;50.086;8.576;2022-09-17T03:48:01;5.87;;;1.40;;
691;SDS011;328;50.086;8.576;2022-09-17T03:50:29;5.80;;;1.73;;
691;SDS011;328;50.086;8.576;2022-09-17T03:52:56;2.60;;;1.63;;
691;SDS011;328;50.086;8.576;2022-09-17T03:55:25;1.50;;;1.33;;
691;SDS011;328;50.086;8.576;2022-09-17T03:57:52;3.50;;;2.00;;
691;SDS011;328;50.086;8.576;2022-09-17T04:00:21;5.53;;;1.57;;
691;SDS011;328;50.086;8.576;2022-09-17T04:02:48;4.10;;;1.27;;
691;SDS011;328;50.086;8.576;2022-09-17T04:05:16;1.60;;;1.13;;
691;SDS011;328;50.086;8.576;2022-09-17T04:07:43;1.50;;;1.40;;
691;SDS011;328;50.086;8.576;2022-09-17T04:10:11;1.90;;;1.27;;
691;SDS011;328;50.086;8.576;2022-09-17T04:12:39;4.10;;;1.70;;
691;SDS011;328;50.086;8.576;2022-09-17T04:15:07;5.27;;;1.30;;
691;SDS011;328;50.086;8.576;2022-09-17T04:17:35;4.27;;;1.53;;
691;SDS011;328;50.086;8.576;2022-09-17T04:20:02;5.80;;;1.83;;
691;SDS011;328;50.086;8.576;2022-09-17T04:22:31;3.60;;;1.80;;
691;SDS011;328;50.086;8.576;2022-09-17T04:24:58;2.17;;;1.47;;
691;SDS011;328;50.086;8.576;2022-09-17T04:27:26;1.63;;;1.50;;
691;SDS011;328;50.086;8.576;2022-09-17T04:29:55;8.93;;;1.50;;
691;SDS011;328;50.086;8.576;2022-09-17T04:32:22;3.83;;;1.50;;
691;SDS011;328;50.086;8.576;2022-09-17T04:34:50;4.27;;;1.33;;
691;SDS011;328;50.086;8.576;2022-09-17T04:37:17;8.83;;;1.70;;
691;SDS011;328;50.086;8.576;2022-09-17T04:39:45;4.00;;;1.73;;
691;SDS011;328;50.086;8.576;2022-09-17T04:42:12;4.00;;;1.70;;
691;SDS011;328;50.086;8.576;2022-09-17T04:44:40;4.37;;;1.43;;
691;SDS011;328;50.086;8.576;2022-09-17T04:47:08;3.13;;;1.73;;
691;SDS011;328;50.086;8.576;2022-09-17T04:49:36;2.63;;;1.50;;
691;SDS011;328;50.086;8.576;2022-09-17T04:52:03;4.07;;;1.20;;
691;SDS011;328;50.086;8.576;2022-09-17T04:54:31;3.47;;;1.50;;
691;SDS011;328;50.086;8.576;2022-09-17T04:56:59;1.20;;;1.10;;
691;SDS011;328;50.086;8.576;2022-09-17T04:59:26;5.67;;;1.60;;
691;SDS011;328;50.086;8.576;2022-09-17T05:01:54;3.77;;;2.00;;
691;SDS011;328;50.086;8.576;2022-09-17T05:04:22;3.60;;;2.03;;
691;SDS011;328;50.086;8.576;2022-09-17T05:06:50;3.00;;;1.50;;
691;SDS011;328;50.086;8.576;2022-09-17T05:09:17;4.40;;;1.60;;
691;SDS011;328;50.086;8.576;2022-09-17T05:11:45;4.70;;;1.50;;
691;SDS011;328;50.086;8.576;2022-09-17T05:14:13;3.77;;;1.90;;
691;SDS011;328;50.086;8.576;2022-09-17T05:16:40;8.80;;;2.00;;
691;SDS011;328;50.086;8.576;2022-09-17T05:19:07;3.53;;;1.57;;
691;SDS011;328;50.086;8.576;2022-09-17T05:21:36;3.70;;;1.90;;
691;SDS011;328;50.086;8.576;2022-09-17T05:24:04;5.30;;;1.40;;
691;SDS011;328;50.086;8.576;2022-09-17T05:26:32;4.03;;;1.43;;
691;SDS011;328;50.086;8.576;2022-09-17T05:28:59;4.80;;;2.17;;
691;SDS011;328;50.086;8.576;2022-09-17T05:31:27;5.00;;;1.80;;
691;SDS011;328;50.086;8.576;2022-09-17T05:33:54;2.40;;;1.20;;
691;SDS011;328;50.086;8.576;2022-09-17T05:36:21;1.87;;;1.60;;
691;SDS011;328;50.086;8.576;2022-09-17T05:38:50;4.50;;;1.97;;
691;SDS011;328;50.086;8.576;2022-09-17T05:41:18;5.83;;;1.30;;
691;SDS011;328;50.086;8.576;2022-09-17T05:43:45;2.20;;;1.20;;
691;SDS011;328;50.086;8.576;2022-09-17T05:46:13;4.07;;;1.37;;
691;SDS011;328;50.086;8.576;2022-09-17T05:48:40;3.10;;;2.00;;
691;SDS011;328;50.086;8.576;2022-09-17T05:51:08;5.70;;;1.50;;
691;SDS011;328;50.086;8.576;2022-09-17T05:53:36;1.40;;;1.30;;
691;SDS011;328;50.086;8.576;2022-09-17T05:56:05;4.50;;;1.60;;
691;SDS011;328;50.086;8.576;2022-09-17T05:58:33;1.93;;;1.50;;
691;SDS011;328;50.086;8.576;2022-09-17T06:01:00;2.97;;;1.80;;
691;SDS011;328;50.086;8.576;2022-09-17T06:03:28;2.50;;;1.73;;
691;SDS011;328;50.086;8.576;2022-09-17T06:05:56;3.23;;;1.70;;
691;SDS011;328;50.086;8.576;2022-09-17T06:08:24;1.97;;;1.70;;
691;SDS011;328;50.086;8.576;2022-09-17T06:10:53;3.77;;;2.03;;
691;SDS011;328;50.086;8.576;2022-09-17T06:13:28;4.37;;;2.37;;
691;SDS011;328;50.086;8.576;2022-09-17T06:15:56;4.07;;;2.30;;
691;SDS011;328;50.086;8.576;2022-09-17T06:18:23;5.77;;;2.30;;
691;SDS011;328;50.086;8.576;2022-09-17T06:20:51;2.43;;;2.13;;
691;SDS011;328;50.086;8.576;2022-09-17T06:23:21;3.83;;;2.10;;
691;SDS011;328;50.086;8.576;2022-09-17T06:25:49;8.23;;;2.83;;
691;SDS011;328;50.086;8.576;2022-09-17T06:28:18;5.50;;;2.70;;
691;SDS011;328;50.086;8.576;2022-09-17T06:30:47;3.60;;;2.80;;
691;SDS011;328;50.086;8.576;2022-09-17T06:33:17;5.07;;;2.53;;
691;SDS011;328;50.086;8.576;2022-09-17T06:35:45;4.60;;;2.80;;
691;SDS011;328;50.086;8.576;2022-09-17T06:38:13;6.13;;;3.10;;
691;SDS011;328;50.086;8.576;2022-09-17T06:40:40;6.37;;;3.27;;
691;SDS011;328;50.086;8.576;2022-09-17T06:43:08;8.53;;;2.90;;
691;SDS011;328;50.086;8.576;2022-09-17T06:45:35;5.20;;;2.80;;
691;SDS011;328;50.086;8.576;2022-09-17T06:48:06;6.03;;;4.07;;
691;SDS011;328;50.086;8.576;2022-09-17T06:50:33;7.30;;;4.07;;
691;SDS011;328;50.086;8.576;2022-09-17T06:53:07;4.53;;;3.67;;
691;SDS011;328;50.086;8.576;2022-09-17T06:55:35;6.63;;;4.47;;
691;SDS011;328;50.086;8.576;2022-09-17T06:58:03;8.00;;;4.30;;
691;SDS011;328;50.086;8.576;2022-09-17T07:00:30;4.97;;;4.10;;
691;SDS011;328;50.086;8.576;2022-09-17T07:02:58;11.50;;;4.57;;
691;SDS011;328;50.086;8.576;2022-09-17T07:05:28;8.97;;;5.57;;
691;SDS011;328;50.086;8.576;2022-09-17T07:07:59;6.73;;;3.97;;
691;SDS011;328;50.086;8.576;2022-09-17T07:10:27;3.43;;;2.90;;
691;SDS011;328;50.086;8.576;2022-09-17T07:12:54;4.40;;;3.00;;
691;SDS011;328;50.086;8.576;2022-09-17T07:15:22;6.90;;;3.50;;
691;SDS011;328;50.086;8.576;2022-09-17T07:17:50;6.10;;;3.13;;
691;SDS011;328;50.086;8.576;2022-09-17T07:20:18;5.03;;;3.27;;
691;SDS011;328;50.086;8.576;2022-09-17T07:22:56;7.67;;;3.70;;
691;SDS011;328;50.086;8.576;2022-09-17T07:25:24;5.77;;;3.40;;
691;SDS011;328;50.086;8.576;2022-09-17T07:27:52;4.80;;;3.40;;
691;SDS011;328;50.086;8.576;2022-09-17T07:30:21;8.47;;;4.73;;
691;SDS011;328;50.086;8.576;2022-09-17T07:32:49;10.37;;;4.07;;
691;SDS011;328;50.086;8.576;2022-09-17T07:35:17;7.87;;;3.20;;
691;SDS011;328;50.086;8.576;2022-09-17T07:37:44;7.57;;;3.93;;
691;SDS011;328;50.086;8.576;2022-09-17T07:40:14;4.60;;;2.80;;
691;SDS011;328;50.086;8.576;2022-09-17T07:42:41;5.63;;;3.70;;
691;SDS011;328;50.086;8.576;2022-09-17T07:45:09;3.90;;;3.50;;
691;SDS011;328;50.086;8.576;2022-09-17T07:47:37;6.20;;;3.03;;
691;SDS011;328;50.086;8.576;2022-09-17T07:50:06;4.23;;;2.93;;
691;SDS011;328;50.086;8.576;2022-09-17T07:52:35;8.90;;;3.23;;
691;SDS011;328;50.086;8.576;2022-09-17T07:55:02;6.53;;;3.33;;
691;SDS011;328;50.086;8.576;2022-09-17T07:57:32;9.80;;;3.07;;
691;SDS011;328;50.086;8.576;2022-09-17T08:00:01;5.00;;;2.40;;
691;SDS011;328;50.086;8.576;2022-09-17T08:02:29;7.80;;;3.13;;
691;SDS011;328;50.086;8.576;2022-09-17T08:04:56;3.67;;;2.70;;
691;SDS011;328;50.086;8.576;2022-09-17T08:07:24;3.43;;;2.23;;
691;SDS011;328;50.086;8.576;2022-09-17T08:09:52;3.80;;;2.43;;
691;SDS011;328;50.086;8.576;2022-09-17T08:12:19;5.93;;;2.73;;
691;SDS011;328;50.086;8.576;2022-09-17T08:14:49;9.23;;;3.33;;
691;SDS011;328;50.086;8.576;2022-09-17T08:17:16;4.00;;;2.60;;
691;SDS011;328;50.086;8.576;2022-09-17T08:19:44;2.90;;;2.57;;
691;SDS011;328;50.086;8.576;2022-09-17T08:22:11;5.97;;;2.50;;
691;SDS011;328;50.086;8.576;2022-09-17T08:24:39;3.20;;;2.90;;
691;SDS011;328;50.086;8.576;2022-09-17T08:27:07;3.40;;;2.60;;
691;SDS011;328;50.086;8.576;2022-09-17T08:29:35;9.07;;;3.00;;
691;SDS011;328;50.086;8.576;2022-09-17T08:32:03;6.10;;;2.53;;
691;SDS011;328;50.086;8.576;2022-09-17T08:34:31;5.67;;;3.67;;
691;SDS011;328;50.086;8.576;2022-09-17T08:36:59;4.03;;;2.30;;
691;SDS011;328;50.086;8.576;2022-09-17T08:39:26;3.13;;;2.20;;
691;SDS011;328;50.086;8.576;2022-09-17T08:41:56;4.53;;;2.10;;
691;SDS011;328;50.086;8.576;2022-09-17T08:44:31;4.33;;;1.73;;
691;SDS011;328;50.086;8.576;2022-09-17T08:47:02;3.53;;;1.77;;
691;SDS011;328;50.086;8.576;2022-09-17T08:49:35;4.10;;;2.13;;
691;SDS011;328;50.086;8.576;2022-09-17T08:52:19;2.80;;;2.23;;
691;SDS011;328;50.086;8.576;2022-09-17T08:54:57;4.83;;;2.40;;
691;SDS011;328;50.086;8.576;2022-09-17T08:57:31;3.77;;;2.13;;
691;SDS011;328;50.086;8.576;2022-09-17T09:00:05;4.73;;;2.30;;
691;SDS011;328;50.086;8.576;2022-09-17T09:02:40;3.70;;;2.23;;
691;SDS011;328;50.086;8.576;2022-09-17T09:05:16;6.70;;;2.87;;
691;SDS011;328;50.086;8.576;2022-09-17T09:07:46;3.60;;;2.00;;
691;SDS011;328;50.086;8.576;2022-09-17T09:10:18;3.43;;;2.17;;
691;SDS011;328;50.086;8.576;2022-09-17T09:12:47;5.10;;;2.23;;
691;SDS011;328;50.086;8.576;2022-09-17T09:15:18;3.37;;;1.80;;
691;SDS011;328;50.086;8.576;2022-09-17T09:17:51;4.70;;;2.40;;
691;SDS011;328;50.086;8.576;2022-09-17T09:20:20;2.87;;;2.00;;
691;SDS011;328;50.086;8.576;2022-09-17T09:22:51;4.00;;;1.97;;
691;SDS011;328;50.086;8.576;2022-09-17T09:25:20;2.80;;;1.70;;
691;SDS011;328;50.086;8.576;2022-09-17T09:27:52;5.67;;;2.47;;
691;SDS011;328;50.086;8.576;2022-09-17T09:30:28;5.27;;;2.07;;
691;SDS011;328;50.086;8.576;2022-09-17T09:33:01;2.63;;;1.33;;
691;SDS011;328;50.086;8.576;2022-09-17T09:35:34;2.70;;;1.57;;
691;SDS011;328;50.086;8.576;2022-09-17T09:38:04;2.37;;;1.50;;
691;SDS011;328;50.086;8.576;2022-09-17T09:40:40;2.13;;;1.37;;
691;SDS011;328;50.086;8.576;2022-09-17T09:43:14;3.00;;;1.30;;
691;SDS011;328;50.086;8.576;2022-09-17T09:45:53;4.43;;;1.20;;
691;SDS011;328;50.086;8.576;2022-09-17T09:48:31;1.57;;;1.30;;
691;SDS011;328;50.086;8.576;2022-09-17T09:51:07;3.47;;;1.60;;
691;SDS011;328;50.086;8.576;2022-09-17T09:53:44;7.10;;;1.80;;
691;SDS011;328;50.086;8.576;2022-09-17T09:56:27;2.10;;;1.43;;
691;SDS011;328;50.086;8.576;2022-09-17T09:59:01;2.10;;;0.90;;
691;SDS011;328;50.086;8.576;2022-09-17T10:01:33;3.10;;;1.20;;
691;SDS011;328;50.086;8.576;2022-09-17T10:04:05;1.83;;;0.93;;
691;SDS011;328;50.086;8.576;2022-09-17T10:06:45;1.90;;;1.13;;
691;SDS011;328;50.086;8.576;2022-09-17T10:09:13;2.70;;;1.00;;
691;SDS011;328;50.086;8.576;2022-09-17T10:11:41;3.27;;;1.73;;
691;SDS011;328;50.086;8.576;2022-09-17T10:14:20;2.57;;;1.43;;
691;SDS011;328;50.086;8.576;2022-09-17T10:16:49;3.47;;;1.00;;
691;SDS011;328;50.086;8.576;2022-09-17T10:19:19;2.63;;;0.87;;
691;SDS011;328;50.086;8.576;2022-09-17T10:21:50;4.10;;;1.97;;
691;SDS011;328;50.086;8.576;2022-09-17T10:24:20;2.77;;;1.30;;
691;SDS011;328;50.086;8.576;2022-09-17T10:26:50;2.70;;;1.10;;
691;SDS011;328;50.086;8.576;2022-09-17T10:29:18;4.57;;;0.90;;
691;SDS011;328;50.086;8.576;2022-09-17T10:31:47;1.27;;;0.87;;
691;SDS011;328;50.086;8.576;2022-09-17T10:34:21;5.13;;;1.17;;
691;SDS011;328;50.086;8.576;2022-09-17T10:36:49;4.60;;;1.40;;
691;SDS011;328;50.086;8.576;2022-09-17T10:39:18;3.00;;;1.13;;
691;SDS011;328;50.086;8.576;2022-09-17T10:41:53;3.00;;;0.80;;
691;SDS011;328;50.086;8.576;2022-09-17T10:44:23;2.80;;;0.90;;
691;SDS011;328;50.086;8.576;2022-09-17T10:46:51;5.90;;;1.43;;
691;SDS011;328;50.086;8.576;2022-09-17T10:49:26;3.43;;;0.80;;
691;SDS011;328;50.086;8.576;2022-09-17T10:52:05;2.70;;;0.80;;
691;SDS011;328;50.086;8.576;2022-09-17T10:54:40;4.00;;;0.97;;
691;SDS011;328;50.086;8.576;2022-09-17T10:57:17;2.43;;;0.90;;
691;SDS011;328;50.086;8.576;2022-09-17T11:02:49;3.67;;;1.00;;
691;SDS011;328;50.086;8.576;2022-09-17T11:05:40;2.03;;;0.90;;
691;SDS011;328;50.086;8.576;2022-09-17T11:08:16;1.30;;;0.70;;
691;SDS011;328;50.086;8.576;2022-09-17T11:10:48;12.33;;;8.07;;
691;SDS011;328;50.086;8.576;2022-09-17T11:13:22;3.93;;;1.30;;
691;SDS011;328;50.086;8.576;2022-09-17T11:15:59;2.17;;;0.73;;
691;SDS011;328;50.086;8.576;2022-09-17T11:18:48;1.60;;;0.60;;
691;SDS011;328;50.086;8.576;2022-09-17T11:24:30;1.83;;;0.80;;
691;SDS011;328;50.086;8.576;2022-09-17T11:27:12;2.67;;;0.90;;
691;SDS011;328;50.086;8.576;2022-09-17T11:30:01;1.00;;;0.77;;
691;SDS011;328;50.086;8.576;2022-09-17T11:32:35;3.80;;;1.47;;
691;SDS011;328;50.086;8.576;2022-09-17T11:35:19;1.37;;;0.70;;
691;SDS011;328;50.086;8.576;2022-09-17T11:37:50;2.63;;;0.63;;
691;SDS011;328;50.086;8.576;2022-09-17T11:40:35;3.57;;;1.03;;
691;SDS011;328;50.086;8.576;2022-09-17T11:43:06;2.63;;;0.87;;
691;SDS011;328;50.086;8.576;2022-09-17T11:45:47;1.83;;;0.70;;
691;SDS011;328;50.086;8.576;2022-09-17T11:48:19;2.50;;;1.17;;
691;SDS011;328;50.086;8.576;2022-09-17T11:50:49;3.27;;;0.93;;
691;SDS011;328;50.086;8.576;2022-09-17T11:53:21;3.57;;;2.30;;
691;SDS011;328;50.086;8.576;2022-09-17T11:55:52;1.13;;;0.70;;
691;SDS011;328;50.086;8.576;2022-09-17T11:58:25;3.93;;;1.20;;
691;SDS011;328;50.086;8.576;2022-09-17T12:00:57;2.10;;;1.13;;
691;SDS011;328;50.086;8.576;2022-09-17T12:03:29;2.13;;;1.00;;
691;SDS011;328;50.086;8.576;2022-09-17T12:05:59;2.57;;;0.70;;
691;SDS011;328;50.086;8.576;2022-09-17T12:08:33;2.90;;;0.93;;
691;SDS011;328;50.086;8.576;2022-09-17T12:11:06;0.90;;;0.60;;
691;SDS011;328;50.086;8.576;2022-09-17T12:13:39;2.10;;;0.90;;
691;SDS011;328;50.086;8.576;2022-09-17T12:16:12;4.57;;;0.80;;
691;SDS011;328;50.086;8.576;2022-09-17T12:18:47;1.13;;;0.87;;
691;SDS011;328;50.086;8.576;2022-09-17T12:21:20;10.27;;;0.90;;
691;SDS011;328;50.086;8.576;2022-09-17T12:23:53;2.17;;;0.70;;
691;SDS011;328;50.086;8.576;2022-09-17T12:26:26;3.17;;;0.60;;
691;SDS011;328;50.086;8.576;2022-09-17T12:28:59;0.70;;;0.40;;
691;SDS011;328;50.086;8.576;2022-09-17T12:31:31;1.70;;;0.87;;
691;SDS011;328;50.086;8.576;2022-09-17T12:34:05;1.30;;;0.93;;
691;SDS011;328;50.086;8.576;2022-09-17T12:36:43;2.27;;;0.53;;
691;SDS011;328;50.086;8.576;2022-09-17T12:39:29;1.30;;;0.60;;
691;SDS011;328;50.086;8.576;2022-09-17T12:42:15;2.67;;;0.70;;
691;SDS011;328;50.086;8.576;2022-09-17T12:44:52;5.07;;;0.93;;
691;SDS011;328;50.086;8.576;2022-09-17T12:47:40;5.13;;;0.73;;
691;SDS011;328;50.086;8.576;2022-09-17T12:50:18;1.80;;;0.90;;
691;SDS011;328;50.086;8.576;2022-09-17T12:52:51;1.30;;;0.70;;
691;SDS011;328;50.086;8.576;2022-09-17T12:55:32;1.20;;;0.60;;
691;SDS011;328;50.086;8.576;2022-09-17T12:58:05;4.20;;;0.80;;
691;SDS011;328;50.086;8.576;2022-09-17T13:00:38;2.40;;;0.73;;
691;SDS011;328;50.086;8.576;2022-09-17T13:03:10;1.10;;;0.63;;
691;SDS011;328;50.086;8.576;2022-09-17T13:11:46;1.33;;;0.50;;
691;SDS011;328;50.086;8.576;2022-09-17T13:14:34;1.73;;;0.70;;
691;SDS011;328;50.086;8.576;2022-09-17T13:17:16;2.30;;;0.60;;
691;SDS011;328;50.086;8.576;2022-09-17T13:19:46;2.80;;;0.60;;
691;SDS011;328;50.086;8.576;2022-09-17T13:22:20;2.83;;;0.80;;
691;SDS011;328;50.086;8.576;2022-09-17T13:25:01;1.97;;;0.60;;
691;SDS011;328;50.086;8.576;2022-09-17T13:27:32;1.57;;;0.80;;
691;SDS011;328;50.086;8.576;2022-09-17T13:30:03;2.03;;;0.60;;
691;SDS011;328;50.086;8.576;2022-09-17T13:32:48;1.43;;;0.60;;
691;SDS011;328;50.086;8.576;2022-09-17T13:38:15;3.83;;;0.60;;
691;SDS011;328;50.086;8.576;2022-09-17T13:40:49;0.93;;;0.57;;
691;SDS011;328;50.086;8.576;2022-09-17T13:43:19;2.30;;;0.50;;
691;SDS011;328;50.086;8.576;2022-09-17T13:48:45;1.87;;;0.50;;
691;SDS011;328;50.086;8.576;2022-09-17T13:54:14;4.93;;;0.50;;
691;SDS011;328;50.086;8.576;2022-09-17T13:56:43;1.33;;;0.40;;
691;SDS011;328;50.086;8.576;2022-09-17T13:59:14;1.67;;;0.67;;
691;SDS011;328;50.086;8.576;2022-09-17T14:08:22;1.83;;;0.50;;
691;SDS011;328;50.086;8.576;2022-09-17T14:10:54;1.63;;;0.90;;
691;SDS011;328;50.086;8.576;2022-09-17T14:13:27;0.90;;;0.50;;
691;SDS011;328;50.086;8.576;2022-09-17T14:22:11;3.60;;;0.50;;
691;SDS011;328;50.086;8.576;2022-09-17T14:24:44;1.17;;;0.60;;
691;SDS011;328;50.086;8.576;2022-09-17T14:27:15;1.93;;;0.70;;
691;SDS011;328;50.086;8.576;2022-09-17T14:30:00;0.83;;;0.47;;
691;SDS011;328;50.086;8.576;2022-09-17T14:32:35;2.17;;;0.77;;
691;SDS011;328;50.086;8.576;2022-09-17T14:35:18;2.77;;;0.53;;
691;SDS011;328;50.086;8.576;2022-09-17T14:37:51;0.80;;;0.50;;
691;SDS011;328;50.086;8.576;2022-09-17T14:40:21;3.80;;;0.80;;
691;SDS011;328;50.086;8.576;2022-09-17T14:42:54;1.57;;;0.80;;
691;SDS011;328;50.086;8.576;2022-09-17T14:45:23;0.80;;;0.40;;
691;SDS011;328;50.086;8.576;2022-09-17T14:50:51;2.07;;;0.53;;
691;SDS011;328;50.086;8.576;2022-09-17T14:53:19;1.40;;;0.60;;
691;SDS011;328;50.086;8.576;2022-09-17T14:55:47;1.87;;;0.50;;
691;SDS011;328;50.086;8.576;2022-09-17T14:58:24;4.40;;;0.60;;
691;SDS011;328;50.086;8.576;2022-09-17T15:00:54;2.00;;;0.50;;
691;SDS011;328;50.086;8.576;2022-09-17T15:03:23;2.07;;;0.50;;
691;SDS011;328;50.086;8.576;2022-09-17T15:05:51;1.10;;;0.57;;
691;SDS011;328;50.086;8.576;2022-09-17T15:08:19;2.40;;;0.70;;
691;SDS011;328;50.086;8.576;2022-09-17T15:10:50;1.93;;;0.63;;
691;SDS011;328;50.086;8.576;2022-09-17T15:13:20;0.70;;;0.50;;
691;SDS011;328;50.086;8.576;2022-09-17T15:15:58;2.10;;;1.07;;
691;SDS011;328;50.086;8.576;2022-09-17T15:18:38;1.70;;;0.60;;
691;SDS011;328;50.086;8.576;2022-09-17T15:21:16;2.77;;;0.70;;
691;SDS011;328;50.086;8.576;2022-09-17T15:23:50;3.80;;;0.90;;
691;SDS011;328;50.086;8.576;2022-09-17T15:26:20;0.90;;;0.60;;
691;SDS011;328;50.086;8.576;2022-09-17T15:28:50;1.67;;;1.03;;
691;SDS011;328;50.086;8.576;2022-09-17T15:31:19;2.03;;;0.60;;
691;SDS011;328;50.086;8.576;2022-09-17T15:33:49;1.20;;;1.00;;
691;SDS011;328;50.086;8.576;2022-09-17T15:36:17;2.20;;;0.70;;
691;SDS011;328;50.086;8.576;2022-09-17T15:38:47;2.90;;;0.60;;
691;SDS011;328;50.086;8.576;2022-09-17T15:41:23;2.40;;;0.93;;
691;SDS011;328;50.086;8.576;2022-09-17T15:43:56;4.23;;;0.90;;
691;SDS011;328;50.086;8.576;2022-09-17T15:46:52;2.17;;;0.40;;
691;SDS011;328;50.086;8.576;2022-09-17T15:49:28;1.67;;;0.60;;
691;SDS011;328;50.086;8.576;2022-09-17T15:54:53;0.80;;;0.60;;
691;SDS011;328;50.086;8.576;2022-09-17T15:57:21;2.50;;;0.60;;
691;SDS011;328;50.086;8.576;2022-09-17T15:59:49;1.63;;;0.67;;
691;SDS011;328;50.086;8.576;2022-09-17T16:02:24;3.23;;;0.80;;
691;SDS011;328;50.086;8.576;2022-09-17T16:08:23;0.80;;;0.40;;
691;SDS011;328;50.086;8.576;2022-09-17T16:10:51;1.20;;;0.50;;
691;SDS011;328;50.086;8.576;2022-09-17T16:13:19;1.83;;;0.60;;
691;SDS011;328;50.086;8.576;2022-09-17T16:15:53;1.30;;;0.63;;
691;SDS011;328;50.086;8.576;2022-09-17T16:18:21;1.73;;;0.67;;
691;SDS011;328;50.086;8.576;2022-09-17T16:20:48;1.50;;;0.50;;
691;SDS011;328;50.086;8.576;2022-09-17T16:23:16;1.43;;;0.60;;
691;SDS011;328;50.086;8.576;2022-09-17T16:25:45;0.83;;;0.47;;
691;SDS011;328;50.086;8.576;2022-09-17T16:28:13;0.60;;;0.40;;
691;SDS011;328;50.086;8.576;2022-09-17T16:30:43;4.77;;;1.07;;
691;SDS011;328;50.086;8.576;2022-09-17T16:33:13;0.97;;;0.50;;
691;SDS011;328;50.086;8.576;2022-09-17T16:35:42;1.70;;;0.67;;
691;SDS011;328;50.086;8.576;2022-09-17T16:38:10;1.77;;;0.50;;
691;SDS011;328;50.086;8.576;2022-09-17T16:40:39;1.10;;;0.57;;
691;SDS011;328;50.086;8.576;2022-09-17T16:43:10;1.90;;;0.70;;
691;SDS011;328;50.086;8.576;2022-09-17T16:45:38;0.90;;;0.57;;
691;SDS011;328;50.086;8.576;2022-09-17T16:48:06;2.47;;;1.27;;
691;SDS011;328;50.086;8.576;2022-09-17T16:50:38;1.10;;;0.50;;
691;SDS011;328;50.086;8.576;2022-09-17T16:53:06;3.00;;;0.50;;
691;SDS011;328;50.086;8.576;2022-09-17T16:55:34;3.27;;;0.70;;
691;SDS011;328;50.086;8.576;2022-09-17T16:58:04;1.40;;;0.80;;